Flora Vista, New Mexico
Current Conditions -  °F | °C
As of 6:53 AM on Friday 24 Oct 2014 (Local Time) from KFMN Reporting Station
Clear Clear  
Wind Chill: 38°   Ceiling: Unl
Heat Index: 42°   Visibility: 10mi
Dew Point: 34°   Wind: 6mph
Humidity: 73%   Direction: 90°E
Pressure: 30.31"   Gusts: NA
Location:  36.79°N, 108.04°W
Report Text: KFMN 241253Z 09005KT 10SM CLR 06/01 A3031 RMK AO2 SLP244 T00560011
Loading
Personal Weather Stations






























Interactive Weather Map
Tropical Storm Tracking
New forecast layout! Learn more

10-Day Weather Forecast

Advertisements
Track Severe Weather on mobile